Time;durP1;ratioP1;P1;durP2;ratioP2;P2;SDS_P1;SDS_P2;PMS_P1;PMS_P2;Temp;Humidity;BMP_temperature;BMP_pressure;BME280_temperature;BME280_humidity;BME280_pressure;Samples;Min_cycle;Max_cycle;Signal;HPM_P1;HPM_P2
2022/04/06 00:00:42;;;;;;;6.30;2.00;;;10.60;99.90;;;;;;5140003;27;20461;-82
2022/04/06 00:03:09;;;;;;;3.08;1.92;;;10.50;99.90;;;;;;5154886;27;20039;-83
2022/04/06 00:05:35;;;;;;;4.72;1.95;;;10.50;99.90;;;;;;5149440;27;20042;-83
2022/04/06 00:08:02;;;;;;;3.20;1.70;;;10.50;99.90;;;;;;5136729;27;20122;-84
2022/04/06 00:10:29;;;;;;;6.35;2.38;;;10.50;99.90;;;;;;5151609;27;20504;-83
2022/04/06 00:12:55;;;;;;;6.35;2.00;;;10.40;99.90;;;;;;5127839;27;20080;-83
2022/04/06 00:15:21;;;;;;;5.30;2.63;;;10.40;99.90;;;;;;5152193;27;20051;-83
2022/04/06 00:17:47;;;;;;;5.97;1.85;;;10.40;99.90;;;;;;5131499;27;20555;-83
2022/04/06 00:20:14;;;;;;;5.43;2.28;;;10.40;99.90;;;;;;5150458;27;20046;-82
2022/04/06 00:22:41;;;;;;;9.93;2.80;;;10.30;99.90;;;;;;5138059;27;20046;-83
2022/04/06 00:25:07;;;;;;;4.20;1.58;;;10.30;99.90;;;;;;5134199;27;20075;-83
2022/04/06 00:27:33;;;;;;;5.40;2.53;;;10.20;99.90;;;;;;5136853;27;20109;-83
2022/04/06 00:30:00;;;;;;;6.45;1.73;;;10.10;99.90;;;;;;5153027;27;20127;-83
2022/04/06 00:32:26;;;;;;;3.78;2.28;;;10.10;99.90;;;;;;5129391;27;20176;-84
2022/04/06 00:37:36;;;;;;;5.40;2.40;;;10.00;99.90;;;;;;5151027;27;20051;-82
2022/04/06 00:40:04;;;;;;;4.32;2.03;;;9.90;99.90;;;;;;5135178;27;20047;-83
2022/04/06 00:42:30;;;;;;;3.25;1.85;;;9.80;99.90;;;;;;5150151;27;20039;-84
2022/04/06 00:44:55;;;;;;;4.40;2.20;;;9.80;99.90;;;;;;5157756;27;20042;-82
2022/04/06 00:47:21;;;;;;;4.25;2.22;;;9.80;99.90;;;;;;5149596;27;20154;-83
2022/04/06 00:49:47;;;;;;;7.28;2.63;;;9.70;99.90;;;;;;5132701;27;20048;-84
2022/04/06 00:52:13;;;;;;;2.92;1.83;;;9.60;99.90;;;;;;5156132;27;20039;-82
2022/04/06 00:54:39;;;;;;;5.03;1.90;;;9.70;99.90;;;;;;5137734;27;20100;-83
2022/04/06 00:57:05;;;;;;;7.05;2.55;;;9.60;99.90;;;;;;5139419;27;20293;-83
2022/04/06 00:59:31;;;;;;;3.70;2.15;;;9.60;99.90;;;;;;5152504;27;20043;-83
2022/04/06 01:01:58;;;;;;;3.35;1.60;;;9.70;99.90;;;;;;5155574;27;20455;-83
2022/04/06 01:04:25;;;;;;;5.55;2.20;;;9.50;99.90;;;;;;5130722;27;20496;-82
2022/04/06 01:06:53;;;;;;;2.97;2.67;;;9.50;99.90;;;;;;5155498;27;20042;-83
2022/04/06 01:09:20;;;;;;;6.90;1.70;;;9.40;99.90;;;;;;5128188;27;20108;-82
2022/04/06 01:11:48;;;;;;;7.63;2.65;;;9.40;99.90;;;;;;5136745;27;20039;-83
2022/04/06 01:14:16;;;;;;;3.67;2.00;;;9.40;99.90;;;;;;5134076;27;20546;-82
2022/04/06 01:16:59;;;;;;;10.07;2.80;;;9.40;99.90;;;;;;5133137;27;21011;-83
2022/04/06 01:19:47;;;;;;;3.60;1.88;;;9.30;99.90;;;;;;5149985;27;20031;-83
2022/04/06 01:22:18;;;;;;;4.10;1.75;;;9.30;99.90;;;;;;5138807;27;20259;-82
2022/04/06 01:24:45;;;;;;;9.88;2.42;;;9.30;99.90;;;;;;5154396;27;21001;-83
2022/04/06 01:27:11;;;;;;;3.13;2.13;;;9.20;99.90;;;;;;5136228;27;20500;-83
2022/04/06 01:29:38;;;;;;;3.50;2.10;;;9.20;99.90;;;;;;5152866;27;20044;-83
2022/04/06 01:32:13;;;;;;;6.13;2.10;;;9.20;99.90;;;;;;5135963;27;20042;-82
2022/04/06 01:34:43;;;;;;;11.18;2.45;;;9.20;99.90;;;;;;5142112;27;20126;-82
2022/04/06 01:37:10;;;;;;;6.63;2.10;;;9.20;99.90;;;;;;5158556;27;20043;-83
2022/04/06 01:39:37;;;;;;;5.72;2.20;;;9.20;99.90;;;;;;5158166;27;20126;-82
2022/04/06 01:42:05;;;;;;;6.82;2.33;;;9.10;99.90;;;;;;5157789;27;20083;-82
2022/04/06 01:44:32;;;;;;;6.10;2.10;;;9.10;99.90;;;;;;5134279;27;20515;-83
2022/04/06 01:47:02;;;;;;;9.73;2.30;;;9.10;99.90;;;;;;5133394;27;20444;-82
2022/04/06 01:52:13;;;;;;;3.15;2.00;;;9.00;99.90;;;;;;5155256;27;20060;-83
2022/04/06 01:54:52;;;;;;;5.35;2.15;;;9.00;99.90;;;;;;5140245;27;20056;-83
2022/04/06 01:57:19;;;;;;;5.50;1.88;;;9.00;99.90;;;;;;5136357;27;20083;-83
2022/04/06 01:59:45;;;;;;;3.40;2.00;;;9.00;99.90;;;;;;5156043;27;20551;-83
2022/04/06 02:02:13;;;;;;;5.85;2.42;;;8.90;99.90;;;;;;5134764;27;20065;-83
2022/04/06 02:04:39;;;;;;;7.65;2.00;;;8.90;99.90;;;;;;5151596;27;20248;-83
2022/04/06 02:07:06;;;;;;;5.13;2.00;;;8.90;99.90;;;;;;5137011;27;20035;-83
2022/04/06 02:09:32;;;;;;;6.15;2.35;;;8.80;99.90;;;;;;5137135;27;20049;-83
2022/04/06 02:11:59;;;;;;;4.72;2.60;;;8.80;99.90;;;;;;5135086;27;20043;-83
2022/04/06 02:14:26;;;;;;;13.18;2.10;;;8.80;99.90;;;;;;5134781;27;20076;-83
2022/04/06 02:16:52;;;;;;;4.75;2.22;;;8.80;99.90;;;;;;5146740;27;20036;-83
2022/04/06 02:19:18;;;;;;;4.72;2.13;;;8.80;99.90;;;;;;5140076;27;20043;-83
2022/04/06 02:21:44;;;;;;;3.50;1.90;;;8.80;99.90;;;;;;5133967;27;20126;-83
2022/04/06 02:24:10;;;;;;;5.10;2.08;;;8.80;99.90;;;;;;5137692;27;20043;-83
2022/04/06 02:26:36;;;;;;;5.78;2.42;;;8.80;99.90;;;;;;5132788;27;20043;-83
2022/04/06 02:29:02;;;;;;;6.00;2.47;;;8.70;99.90;;;;;;5130718;27;20416;-83
2022/04/06 02:31:29;;;;;;;3.78;1.77;;;8.70;99.90;;;;;;5148603;27;20042;-83
2022/04/06 02:33:54;;;;;;;4.68;2.20;;;8.70;99.90;;;;;;5133180;27;20050;-83
2022/04/06 02:36:20;;;;;;;4.10;1.83;;;9.00;99.90;;;;;;5152924;27;20039;-83
2022/04/06 02:38:47;;;;;;;6.38;1.95;;;8.70;99.90;;;;;;5132860;27;20502;-83
2022/04/06 02:41:13;;;;;;;3.63;2.28;;;8.70;99.90;;;;;;5135088;27;20087;-83
2022/04/06 02:43:39;;;;;;;3.15;1.85;;;8.70;99.90;;;;;;5133480;27;20096;-83
2022/04/06 02:46:05;;;;;;;8.82;2.00;;;8.70;99.90;;;;;;5150760;27;20108;-83
2022/04/06 02:48:31;;;;;;;2.75;1.95;;;8.70;99.90;;;;;;5133982;27;20046;-83
2022/04/06 02:50:56;;;;;;;6.75;2.22;;;8.70;99.90;;;;;;5135418;27;20091;-83
2022/04/06 02:53:22;;;;;;;9.98;2.28;;;8.70;99.90;;;;;;5133208;27;20129;-83
2022/04/06 02:55:48;;;;;;;6.07;2.13;;;8.70;99.90;;;;;;5151146;27;20677;-83
2022/04/06 02:58:15;;;;;;;5.20;2.45;;;8.70;99.90;;;;;;5134989;27;20054;-83
2022/04/06 03:00:41;;;;;;;9.20;2.50;;;8.60;99.90;;;;;;5130406;27;20096;-83
2022/04/06 03:03:06;;;;;;;5.57;2.08;;;8.60;99.90;;;;;;5133418;27;20111;-83
2022/04/06 03:05:32;;;;;;;9.98;2.40;;;8.60;99.90;;;;;;5148375;27;20092;-83
2022/04/06 03:07:58;;;;;;;13.70;5.20;;;8.60;99.90;;;;;;5151739;27;20045;-83
2022/04/06 03:10:24;;;;;;;3.78;2.20;;;8.90;99.90;;;;;;5134889;27;20588;-83
2022/04/06 03:12:51;;;;;;;3.20;2.63;;;8.70;99.90;;;;;;5133923;27;20579;-83
2022/04/06 03:15:17;;;;;;;6.38;2.25;;;8.80;99.90;;;;;;5138779;27;20055;-83
2022/04/06 03:17:43;;;;;;;3.80;2.58;;;8.80;99.90;;;;;;5134617;27;20039;-83
2022/04/06 03:20:13;;;;;;;4.43;1.65;;;8.90;99.90;;;;;;5133615;27;20039;-83
2022/04/06 03:22:40;;;;;;;7.85;2.35;;;8.90;99.90;;;;;;5134034;27;20043;-84
2022/04/06 03:25:06;;;;;;;4.72;1.80;;;8.90;99.90;;;;;;5154080;27;20129;-83
2022/04/06 03:27:33;;;;;;;2.08;1.38;;;8.90;99.90;;;;;;5138197;27;20057;-83
2022/04/06 03:30:00;;;;;;;8.15;1.75;;;9.00;99.90;;;;;;5150066;27;20035;-83
2022/04/06 03:32:26;;;;;;;5.65;1.98;;;9.00;99.90;;;;;;5152718;27;20046;-83
2022/04/06 03:34:51;;;;;;;4.57;1.85;;;9.00;99.90;;;;;;5134801;27;20512;-83
2022/04/06 03:37:17;;;;;;;2.45;1.50;;;9.00;99.90;;;;;;5137478;27;20046;-83
2022/04/06 03:39:43;;;;;;;6.80;1.92;;;9.00;99.90;;;;;;5136428;27;20568;-83
2022/04/06 03:42:09;;;;;;;4.13;1.60;;;9.00;99.90;;;;;;5139406;27;20045;-83
2022/04/06 03:44:34;;;;;;;3.67;2.55;;;9.00;99.90;;;;;;5136582;27;20073;-83
2022/04/06 03:47:00;;;;;;;5.90;2.95;;;9.00;99.90;;;;;;5135767;27;20277;-83
2022/04/06 03:49:26;;;;;;;4.20;1.95;;;9.00;99.90;;;;;;5128718;27;20035;-83
2022/04/06 03:51:52;;;;;;;3.80;1.75;;;9.00;99.90;;;;;;5138083;27;20552;-83
2022/04/06 03:54:17;;;;;;;5.85;2.20;;;9.00;99.90;;;;;;5133103;27;20134;-84
2022/04/06 03:56:43;;;;;;;4.43;1.90;;;9.00;99.90;;;;;;5136817;27;20039;-84
2022/04/06 03:59:09;;;;;;;5.10;2.28;;;9.00;99.90;;;;;;5138879;27;20038;-83
2022/04/06 04:01:37;;;;;;;5.63;2.40;;;9.00;99.90;;;;;;5129187;27;20093;-83
2022/04/06 04:04:04;;;;;;;3.78;2.05;;;9.00;99.90;;;;;;5138436;27;20518;-83
2022/04/06 04:06:31;;;;;;;5.00;1.65;;;9.00;99.90;;;;;;5122682;27;20043;-83
2022/04/06 04:08:57;;;;;;;5.22;2.40;;;9.10;99.90;;;;;;5123463;27;20039;-83
2022/04/06 04:11:23;;;;;;;6.63;2.95;;;9.10;99.90;;;;;;5117317;27;20050;-83
2022/04/06 04:13:48;;;;;;;8.18;2.22;;;9.10;99.90;;;;;;5139007;27;20050;-84
2022/04/06 04:16:14;;;;;;;3.20;1.67;;;9.10;99.90;;;;;;5137466;27;20045;-84
2022/04/06 04:18:41;;;;;;;4.93;1.83;;;9.10;99.90;;;;;;5120821;27;20043;-84
2022/04/06 04:23:52;;;;;;;5.95;1.95;;;9.20;99.90;;;;;;5133279;27;20043;-84
2022/04/06 04:26:17;;;;;;;4.80;2.47;;;9.20;99.90;;;;;;5139487;27;20039;-85
2022/04/06 04:28:43;;;;;;;2.55;1.63;;;9.20;99.90;;;;;;5135510;27;20039;-84
2022/04/06 04:31:09;;;;;;;5.15;2.20;;;9.20;99.90;;;;;;5118801;27;20468;-84
2022/04/06 04:33:35;;;;;;;2.25;1.33;;;9.20;99.90;;;;;;5120601;27;20078;-83
2022/04/06 04:36:00;;;;;;;2.28;1.38;;;9.20;99.90;;;;;;5120455;27;20065;-84
2022/04/06 04:38:26;;;;;;;3.67;1.98;;;9.20;99.90;;;;;;5137814;27;20035;-86
2022/04/06 04:40:52;;;;;;;4.70;1.90;;;9.20;99.90;;;;;;5117604;27;20039;-84
2022/04/06 04:43:18;;;;;;;5.03;2.10;;;9.20;99.90;;;;;;5122920;27;20061;-84
2022/04/06 04:45:44;;;;;;;7.25;1.95;;;9.20;99.90;;;;;;5114965;27;20443;-84
2022/04/06 04:48:10;;;;;;;3.20;1.45;;;9.30;99.90;;;;;;5117874;27;20032;-84
2022/04/06 04:50:35;;;;;;;2.42;1.38;;;9.20;99.90;;;;;;5117181;27;20043;-83
2022/04/06 04:53:01;;;;;;;6.63;1.77;;;9.30;99.90;;;;;;5117994;27;20043;-84
2022/04/06 04:55:27;;;;;;;5.15;1.50;;;9.30;99.90;;;;;;5132608;27;20039;-84
2022/04/06 04:57:53;;;;;;;2.83;1.33;;;9.30;99.90;;;;;;5118204;27;20043;-84
2022/04/06 05:00:19;;;;;;;8.60;1.63;;;9.30;99.90;;;;;;5118934;27;20391;-84
2022/04/06 05:02:44;;;;;;;2.15;1.65;;;9.30;99.90;;;;;;5137162;27;20133;-84
2022/04/06 05:05:11;;;;;;;3.55;1.45;;;9.30;99.90;;;;;;5134131;27;20039;-84
2022/04/06 05:07:38;;;;;;;3.00;1.60;;;9.30;99.90;;;;;;5154754;27;20516;-86
2022/04/06 05:10:05;;;;;;;5.90;1.50;;;9.40;99.90;;;;;;5155899;27;20041;-84
2022/04/06 05:12:30;;;;;;;2.92;1.20;;;9.30;99.90;;;;;;5136013;27;20027;-86
2022/04/06 05:14:59;;;;;;;5.50;1.73;;;9.40;99.90;;;;;;5160433;27;20493;-85
2022/04/06 05:17:25;;;;;;;6.72;1.77;;;9.40;99.90;;;;;;5155055;27;20034;-86
2022/04/06 05:19:51;;;;;;;3.13;1.13;;;9.40;99.90;;;;;;5131996;27;20035;-85
2022/04/06 05:22:16;;;;;;;4.22;1.50;;;9.40;99.90;;;;;;5139777;27;20047;-85
2022/04/06 05:24:42;;;;;;;10.80;1.88;;;9.50;99.90;;;;;;5136185;27;20615;-86
2022/04/06 05:27:08;;;;;;;2.22;1.17;;;9.50;99.90;;;;;;5154849;27;20039;-86
2022/04/06 05:29:34;;;;;;;2.53;1.20;;;9.20;99.90;;;;;;5156740;27;20066;-84
2022/04/06 05:32:00;;;;;;;5.18;1.35;;;9.50;99.90;;;;;;5138313;27;20505;-87
2022/04/06 05:34:26;;;;;;;2.30;1.10;;;9.60;99.90;;;;;;5141471;27;20037;-88
2022/04/06 05:36:52;;;;;;;2.20;1.23;;;9.50;99.90;;;;;;5149161;27;20050;-86
2022/04/06 05:39:17;;;;;;;3.60;1.80;;;9.50;99.90;;;;;;5139880;27;20402;-87
2022/04/06 05:41:43;;;;;;;3.88;1.70;;;9.60;99.90;;;;;;5136825;27;20131;-87
2022/04/06 05:44:09;;;;;;;3.42;1.70;;;9.60;99.90;;;;;;5155935;27;20572;-86
2022/04/06 05:46:35;;;;;;;3.78;2.60;;;9.60;99.90;;;;;;5141710;27;20576;-87
2022/04/06 05:49:01;;;;;;;4.95;1.63;;;9.60;99.90;;;;;;5165995;27;20042;-86
2022/04/06 05:51:26;;;;;;;4.47;1.55;;;9.60;99.90;;;;;;5140392;27;20047;-87
2022/04/06 05:53:52;;;;;;;3.58;1.30;;;9.60;99.90;;;;;;5133799;27;20062;-86
2022/04/06 05:56:18;;;;;;;3.28;1.52;;;9.60;99.90;;;;;;5154799;27;20078;-86
2022/04/06 05:58:44;;;;;;;4.32;2.72;;;9.70;99.90;;;;;;5156188;27;20499;-87
2022/04/06 06:01:14;;;;;;;4.68;1.15;;;9.70;99.90;;;;;;5158355;27;20051;-86
2022/04/06 06:03:40;;;;;;;4.25;2.03;;;9.70;99.90;;;;;;5135532;27;20092;-87
2022/04/06 06:06:06;;;;;;;3.80;2.00;;;9.70;99.90;;;;;;5160164;27;20451;-87
2022/04/06 06:08:31;;;;;;;4.80;1.80;;;9.70;99.90;;;;;;5140081;27;20053;-87
2022/04/06 06:10:57;;;;;;;4.63;1.30;;;9.80;99.90;;;;;;5136208;27;20073;-86
2022/04/06 06:13:23;;;;;;;6.05;1.73;;;9.80;99.90;;;;;;5133398;27;20210;-87
2022/04/06 06:15:49;;;;;;;5.72;2.28;;;9.80;99.90;;;;;;5137523;27;20099;-87
2022/04/06 06:18:15;;;;;;;3.90;2.08;;;9.80;99.90;;;;;;5157508;27;20532;-87
2022/04/06 06:20:41;;;;;;;4.28;1.83;;;9.80;99.90;;;;;;5157470;27;20582;-86
2022/04/06 06:23:08;;;;;;;8.63;2.72;;;9.80;99.90;;;;;;5142878;27;20045;-88
2022/04/06 06:25:35;;;;;;;3.08;1.65;;;9.80;99.90;;;;;;5141971;27;20045;-88
2022/04/06 06:28:00;;;;;;;4.15;1.42;;;9.80;99.90;;;;;;5139312;27;20042;-86
2022/04/06 06:30:27;;;;;;;6.15;1.85;;;9.90;99.90;;;;;;5132482;27;20047;-87
2022/04/06 06:32:54;;;;;;;6.47;1.90;;;9.90;99.90;;;;;;5134998;27;20050;-86
2022/04/06 06:35:20;;;;;;;9.73;2.13;;;9.90;99.90;;;;;;5143727;27;20576;-87
2022/04/06 06:37:52;;;;;;;3.28;1.63;;;10.00;99.90;;;;;;5140808;27;20511;-86
2022/04/06 06:40:19;;;;;;;4.45;1.83;;;10.00;99.90;;;;;;5135720;27;20074;-86
2022/04/06 06:42:45;;;;;;;6.72;1.63;;;10.00;99.90;;;;;;5132502;27;20153;-87
2022/04/06 06:45:11;;;;;;;2.78;1.55;;;10.10;99.90;;;;;;5135988;27;20566;-87
2022/04/06 06:47:40;;;;;;;2.20;1.50;;;10.00;99.90;;;;;;5140631;27;20039;-88
2022/04/06 06:50:07;;;;;;;6.65;1.70;;;10.00;99.90;;;;;;5153733;27;20050;-87
2022/04/06 06:52:34;;;;;;;9.40;2.28;;;10.00;99.90;;;;;;5138211;27;20039;-87
2022/04/06 06:55:01;;;;;;;6.43;2.15;;;10.10;99.90;;;;;;5139296;27;20047;-87
2022/04/06 06:57:29;;;;;;;4.35;1.63;;;10.10;99.90;;;;;;5136976;27;20592;-87
2022/04/06 06:59:56;;;;;;;3.65;2.33;;;10.20;99.90;;;;;;5165091;27;20032;-86
2022/04/06 07:02:21;;;;;;;2.45;1.58;;;10.20;99.90;;;;;;5143008;27;20718;-86
2022/04/06 07:04:47;;;;;;;3.67;1.13;;;10.20;99.90;;;;;;5158680;27;20041;-88
2022/04/06 07:07:13;;;;;;;4.70;1.45;;;10.20;99.90;;;;;;5145462;27;20043;-87
2022/04/06 07:09:39;;;;;;;7.30;2.97;;;10.20;99.90;;;;;;5132831;27;20601;-87
2022/04/06 07:12:05;;;;;;;2.60;1.48;;;10.20;99.90;;;;;;5142591;27;20031;-86
2022/04/06 07:14:32;;;;;;;3.55;1.30;;;10.30;99.90;;;;;;5158750;27;20042;-87
2022/04/06 07:17:01;;;;;;;4.15;1.60;;;10.30;99.90;;;;;;5140059;27;20062;-87
2022/04/06 07:19:27;;;;;;;4.70;2.05;;;10.40;99.90;;;;;;5158095;27;20047;-85
2022/04/06 07:21:53;;;;;;;8.18;2.00;;;10.40;99.90;;;;;;5146918;27;20035;-85
2022/04/06 07:24:18;;;;;;;1.95;1.40;;;10.40;99.90;;;;;;5141044;27;20047;-85
2022/04/06 07:26:44;;;;;;;3.58;1.63;;;10.50;99.90;;;;;;5157730;27;20083;-85
2022/04/06 07:29:15;;;;;;;4.50;1.75;;;10.50;99.90;;;;;;5135311;27;20166;-85
2022/04/06 07:31:43;;;;;;;6.00;2.10;;;10.50;99.90;;;;;;5153492;27;20058;-85
2022/04/06 07:34:10;;;;;;;4.97;2.05;;;10.50;99.90;;;;;;5136281;27;20633;-84
2022/04/06 07:36:37;;;;;;;2.67;1.55;;;10.50;99.90;;;;;;5141833;27;20115;-85
2022/04/06 07:39:06;;;;;;;4.13;1.50;;;10.60;99.90;;;;;;5140540;27;20121;-85
2022/04/06 07:41:32;;;;;;;2.97;1.38;;;10.60;99.90;;;;;;5139482;27;20479;-85
2022/04/06 07:43:59;;;;;;;2.63;1.52;;;10.60;99.90;;;;;;5139523;27;20126;-84
2022/04/06 07:46:24;;;;;;;4.18;1.85;;;10.70;99.90;;;;;;5143340;27;20047;-85
2022/04/06 07:48:50;;;;;;;2.97;1.63;;;10.80;99.90;;;;;;5150376;27;20491;-85
2022/04/06 07:51:16;;;;;;;2.97;1.48;;;10.80;99.90;;;;;;5155979;27;20445;-85
2022/04/06 07:53:43;;;;;;;9.15;1.83;;;10.90;99.90;;;;;;5134908;27;20545;-85
2022/04/06 07:56:09;;;;;;;5.20;1.70;;;10.90;99.90;;;;;;5138639;27;20047;-85
2022/04/06 07:58:35;;;;;;;4.15;2.03;;;10.90;99.90;;;;;;5136255;27;20424;-84
2022/04/06 08:01:06;;;;;;;4.22;1.77;;;10.90;99.90;;;;;;5143860;27;20047;-84
2022/04/06 08:03:35;;;;;;;2.10;1.33;;;10.90;99.90;;;;;;5140779;27;20067;-88
2022/04/06 08:06:04;;;;;;;3.28;1.95;;;11.00;99.90;;;;;;5148114;27;20486;-87
2022/04/06 08:08:29;;;;;;;5.60;2.28;;;11.00;99.90;;;;;;5140937;27;20043;-87
2022/04/06 08:10:55;;;;;;;6.53;2.88;;;11.00;99.90;;;;;;5155588;27;20043;-87
2022/04/06 08:13:21;;;;;;;4.95;2.00;;;11.00;99.90;;;;;;5137919;27;20123;-88
2022/04/06 08:15:48;;;;;;;5.35;2.10;;;11.10;99.90;;;;;;5134732;27;20393;-86
2022/04/06 08:18:14;;;;;;;6.15;2.05;;;11.20;99.90;;;;;;5141314;27;20040;-87
2022/04/06 08:20:40;;;;;;;4.50;1.88;;;11.30;99.90;;;;;;5139266;27;20039;-85
2022/04/06 08:23:05;;;;;;;5.60;2.20;;;11.40;99.90;;;;;;5159395;27;20019;-85
2022/04/06 08:25:33;;;;;;;2.00;1.25;;;11.40;99.90;;;;;;5168228;27;20027;-85
2022/04/06 08:28:02;;;;;;;8.95;2.58;;;11.40;99.90;;;;;;5170648;27;20045;-84
2022/04/06 08:30:27;;;;;;;8.13;2.00;;;11.50;99.90;;;;;;5151759;27;20080;-88
2022/04/06 08:32:58;;;;;;;3.80;1.85;;;11.50;99.90;;;;;;5151192;27;20486;-85
2022/04/06 08:35:24;;;;;;;7.30;2.53;;;11.50;99.90;;;;;;5165980;27;20509;-85
2022/04/06 08:37:52;;;;;;;4.18;1.92;;;11.50;99.90;;;;;;5144805;27;20153;-86
2022/04/06 08:40:18;;;;;;;8.13;2.35;;;11.50;99.90;;;;;;5151950;27;20031;-86
2022/04/06 08:42:45;;;;;;;4.47;1.92;;;11.70;99.90;;;;;;5172808;27;20043;-85
2022/04/06 08:45:12;;;;;;;3.17;1.63;;;11.70;99.90;;;;;;5170054;27;20049;-85
2022/04/06 08:47:39;;;;;;;2.80;2.10;;;11.80;99.90;;;;;;5163296;27;20031;-86
2022/04/06 08:50:07;;;;;;;8.48;2.55;;;11.90;99.90;;;;;;5166572;27;20091;-86
2022/04/06 08:52:34;;;;;;;3.33;1.67;;;11.90;99.90;;;;;;5162069;27;20035;-86
2022/04/06 08:55:01;;;;;;;7.55;2.00;;;11.90;99.90;;;;;;5147722;27;20035;-86
2022/04/06 08:57:29;;;;;;;6.00;2.47;;;12.00;99.90;;;;;;5161818;27;20039;-86
2022/04/06 08:59:59;;;;;;;4.72;2.10;;;12.10;99.90;;;;;;5142555;27;20031;-86
2022/04/06 09:02:27;;;;;;;9.30;2.20;;;12.20;99.90;;;;;;5143607;27;20089;-85
2022/04/06 09:04:54;;;;;;;5.90;2.10;;;12.50;99.90;;;;;;5146039;27;20030;-85
2022/04/06 09:07:22;;;;;;;4.55;2.25;;;12.70;99.90;;;;;;5162139;27;20126;-86
2022/04/06 09:09:53;;;;;;;9.15;4.18;;;12.80;99.90;;;;;;5140882;27;20550;-86
2022/04/06 09:12:21;;;;;;;4.97;2.17;;;12.90;99.90;;;;;;5142293;27;20039;-86
2022/04/06 09:14:47;;;;;;;5.38;1.80;;;12.90;99.90;;;;;;5139852;27;20054;-87
2022/04/06 09:17:18;;;;;;;3.38;2.22;;;13.10;99.90;;;;;;5154490;27;20155;-86
2022/04/06 09:19:49;;;;;;;7.80;2.13;;;13.20;99.90;;;;;;5137874;27;20060;-86
2022/04/06 09:22:20;;;;;;;4.45;1.90;;;13.20;99.90;;;;;;5146355;27;20538;-86
2022/04/06 09:24:57;;;;;;;4.68;2.08;;;13.30;99.90;;;;;;5144242;27;20050;-86
2022/04/06 09:27:32;;;;;;;8.52;2.95;;;13.30;99.90;;;;;;5140592;27;20043;-86
2022/04/06 09:29:59;;;;;;;6.30;2.38;;;13.40;99.90;;;;;;5155502;27;20524;-85
2022/04/06 09:32:25;;;;;;;3.38;1.80;;;13.60;99.90;;;;;;5140047;27;20047;-86
2022/04/06 09:34:51;;;;;;;3.10;1.38;;;13.70;99.90;;;;;;5145419;27;20046;-86
2022/04/06 09:37:30;;;;;;;3.13;1.70;;;13.80;99.90;;;;;;5153121;27;20594;-86
2022/04/06 09:40:06;;;;;;;5.78;1.40;;;13.80;99.90;;;;;;5140559;27;20536;-86
2022/04/06 09:42:32;;;;;;;2.88;1.02;;;13.90;99.90;;;;;;5141516;27;20112;-86
2022/04/06 09:48:01;;;;;;;4.90;1.33;;;14.00;99.90;;;;;;5159603;27;20118;-86
2022/04/06 09:50:29;;;;;;;2.67;1.27;;;13.90;99.90;;;;;;5137702;27;20129;-85
2022/04/06 09:52:57;;;;;;;2.28;1.02;;;14.00;99.90;;;;;;5147775;27;20220;-86
2022/04/06 09:55:24;;;;;;;2.85;1.38;;;13.30;99.90;;;;;;5143331;27;20134;-86
2022/04/06 09:57:55;;;;;;;5.15;1.90;;;13.20;99.90;;;;;;5145965;27;20051;-86
2022/04/06 10:00:28;;;;;;;2.60;1.25;;;13.10;99.90;;;;;;5160022;27;20042;-86
2022/04/06 10:03:09;;;;;;;2.95;1.10;;;13.00;99.90;;;;;;5157671;27;20095;-86
2022/04/06 10:05:40;;;;;;;4.43;1.65;;;12.90;99.90;;;;;;5138974;27;20126;-86
2022/04/06 10:08:07;;;;;;;3.22;1.00;;;12.80;99.90;;;;;;5137773;27;20051;-86
2022/04/06 10:10:35;;;;;;;4.68;1.10;;;13.00;99.90;;;;;;5140676;27;20034;-86
2022/04/06 10:13:07;;;;;;;1.88;1.15;;;13.10;99.90;;;;;;5143441;27;20088;-86
2022/04/06 10:15:34;;;;;;;;;;;13.10;99.90;;;;;;5142670;27;20038;-86
2022/04/06 10:18:00;;;;;;;3.78;1.17;;;13.00;99.90;;;;;;5143283;27;20468;-87
2022/04/06 10:20:45;;;;;;;5.10;1.88;;;13.00;99.90;;;;;;5160167;27;20038;-86
2022/04/06 10:23:33;;;;;;;4.55;1.55;;;13.20;99.90;;;;;;5137562;27;20047;-87
2022/04/06 10:26:21;;;;;;;5.40;1.35;;;13.40;99.90;;;;;;5137095;27;20054;-86
2022/04/06 10:28:49;;;;;;;5.18;1.45;;;13.40;99.90;;;;;;5146891;27;20058;-86
2022/04/06 10:31:25;;;;;;;3.15;1.63;;;13.40;99.90;;;;;;5139896;27;20520;-86
2022/04/06 10:34:13;;;;;;;2.90;2.13;;;13.50;99.90;;;;;;5139673;27;20042;-87
2022/04/06 10:36:41;;;;;;;4.20;2.17;;;13.40;99.90;;;;;;5157722;27;20070;-86
2022/04/06 10:39:07;;;;;;;6.90;3.28;;;13.40;99.90;;;;;;5160820;27;20108;-86
2022/04/06 10:41:34;;;;;;;7.15;2.42;;;13.30;99.90;;;;;;5139064;27;20135;-86
2022/04/06 10:44:00;;;;;;;2.78;1.50;;;13.40;99.90;;;;;;5141241;27;20047;-86
2022/04/06 10:46:40;;;;;;;4.35;1.70;;;13.50;99.90;;;;;;5141129;27;20067;-87
2022/04/06 10:49:06;;;;;;;5.22;1.70;;;13.50;99.90;;;;;;5161834;27;20042;-86
2022/04/06 10:51:34;;;;;;;4.13;1.60;;;13.40;99.90;;;;;;5149172;27;20065;-87
2022/04/06 10:54:20;;;;;;;3.42;1.58;;;13.40;99.90;;;;;;5159573;27;20122;-86
2022/04/06 10:57:01;;;;;;;9.50;2.42;;;13.30;99.90;;;;;;5137570;27;20551;-87
2022/04/06 10:59:33;;;;;;;2.97;1.67;;;13.40;99.90;;;;;;5135803;27;20046;-86
2022/04/06 11:02:28;;;;;;;3.88;1.70;;;13.50;99.90;;;;;;5138046;27;20782;-87
2022/04/06 11:04:54;;;;;;;3.83;1.77;;;13.70;99.90;;;;;;5143088;27;20041;-87
2022/04/06 11:10:28;;;;;;;5.22;1.55;;;13.90;99.90;;;;;;5160207;27;20039;-86
2022/04/06 11:12:59;;;;;;;6.70;1.88;;;13.90;99.90;;;;;;5139625;27;20294;-87
2022/04/06 11:15:34;;;;;;;2.15;1.35;;;14.00;99.90;;;;;;5138818;27;20096;-86
2022/04/06 11:18:01;;;;;;;4.88;1.88;;;14.20;99.90;;;;;;5133759;27;20043;-86
2022/04/06 11:20:34;;;;;;;2.53;1.23;;;14.30;99.90;;;;;;5158036;27;20137;-87
2022/04/06 11:23:00;;;;;;;3.55;1.80;;;14.30;99.90;;;;;;5156856;27;20097;-87
2022/04/06 11:25:28;;;;;;;3.28;1.98;;;14.50;99.90;;;;;;5137805;27;20042;-86
2022/04/06 11:27:55;;;;;;;5.88;1.67;;;14.70;99.90;;;;;;5156316;27;20499;-87
2022/04/06 11:30:23;;;;;;;3.22;2.53;;;14.70;99.90;;;;;;5144049;27;20133;-87
2022/04/06 11:32:54;;;;;;;5.55;1.88;;;14.70;99.90;;;;;;5133154;27;20038;-86
2022/04/06 11:35:20;;;;;;;3.72;1.90;;;14.70;99.90;;;;;;5156467;27;20545;-86
2022/04/06 11:37:50;;;;;;;5.90;2.30;;;14.60;99.90;;;;;;5141771;27;20130;-87
2022/04/06 11:40:17;;;;;;;2.13;1.42;;;14.50;99.90;;;;;;5140571;27;20136;-86
2022/04/06 11:43:05;;;;;;;3.58;1.30;;;14.40;99.90;;;;;;5160503;27;20039;-87
2022/04/06 11:45:32;;;;;;;3.00;1.60;;;14.50;99.90;;;;;;5156889;27;20543;-87
2022/04/06 11:48:06;;;;;;;3.78;2.10;;;14.40;99.90;;;;;;5165870;27;20039;-87
2022/04/06 11:50:37;;;;;;;3.25;1.77;;;14.40;99.90;;;;;;5161222;27;20068;-87
2022/04/06 11:53:07;;;;;;;5.50;1.50;;;14.50;99.90;;;;;;5150560;27;20047;-87
2022/04/06 11:56:01;;;;;;;6.38;2.25;;;14.70;99.90;;;;;;5150393;27;20106;-86
2022/04/06 11:58:38;;;;;;;3.60;1.65;;;14.80;99.90;;;;;;5169630;27;20067;-87
2022/04/06 12:01:13;;;;;;;4.05;1.83;;;14.80;99.90;;;;;;5148226;27;20849;-87
2022/04/06 12:03:41;;;;;;;5.55;1.95;;;14.70;99.90;;;;;;5148628;27;20046;-86
2022/04/06 12:06:10;;;;;;;6.50;2.47;;;14.60;99.90;;;;;;5143989;27;20520;-88
2022/04/06 12:08:37;;;;;;;7.50;2.13;;;14.70;99.90;;;;;;5161626;27;20087;-87
2022/04/06 12:11:04;;;;;;;3.55;1.67;;;14.70;99.90;;;;;;5160966;27;20073;-87
2022/04/06 12:13:32;;;;;;;4.70;1.70;;;14.60;99.90;;;;;;5147083;27;20066;-87
